createdAt,value
2019-03-25T00:03:36.673Z,11.50
2019-03-25T00:07:41.826Z,12.85
2019-03-25T00:11:47.087Z,11.70
2019-03-25T00:15:52.237Z,9.87
2019-03-25T00:26:40.617Z,12.00
2019-03-25T00:39:17.725Z,12.30
2019-03-25T00:46:16.248Z,10.07
2019-03-25T00:50:21.345Z,6.87
2019-03-25T00:54:26.473Z,11.17
2019-03-25T01:04:02.350Z,10.37
2019-03-25T01:16:24.565Z,8.70
2019-03-25T01:20:29.729Z,8.53
2019-03-25T01:27:21.980Z,9.23
2019-03-25T01:31:27.102Z,11.87
2019-03-25T01:35:32.246Z,14.30
2019-03-25T01:47:30.131Z,6.63
2019-03-25T01:55:36.598Z,10.33
2019-03-25T02:07:21.140Z,16.10
2019-03-25T02:11:26.216Z,6.07
2019-03-25T02:15:31.440Z,12.80
2019-03-25T02:22:00.167Z,9.93
2019-03-25T02:26:05.508Z,10.47
2019-03-25T02:35:10.974Z,5.30
2019-03-25T02:49:16.773Z,8.90
2019-03-25T02:53:21.881Z,10.30
2019-03-25T03:25:56.895Z,8.33
2019-03-25T03:29:54.289Z,10.27
2019-03-25T03:33:59.413Z,21.13
2019-03-25T03:48:03.214Z,7.53
2019-03-25T03:57:19.182Z,8.07
2019-03-25T04:03:16.361Z,8.30
2019-03-25T04:07:21.465Z,4.20
2019-03-25T04:13:57.252Z,4.97
2019-03-25T04:18:02.457Z,4.40
2019-03-25T04:22:07.592Z,2.63
2019-03-25T04:26:27.276Z,4.50
2019-03-25T04:30:19.569Z,4.47
2019-03-25T04:34:43.088Z,2.80
2019-03-25T04:43:27.183Z,4.83
2019-03-25T04:47:32.384Z,4.50
2019-03-25T04:54:08.494Z,2.43
2019-03-25T05:02:17.886Z,1.37
2019-03-25T05:14:55.501Z,3.27
2019-03-25T05:22:31.867Z,5.17
2019-03-25T05:26:36.987Z,1.50
2019-03-25T05:30:42.100Z,4.43
2019-03-25T05:34:47.207Z,2.23
2019-03-25T05:38:52.280Z,2.70
2019-03-25T05:42:57.492Z,4.50
2019-03-25T05:47:02.629Z,4.80
2019-03-25T05:52:34.636Z,3.20
2019-03-25T05:59:24.960Z,2.77
2019-03-25T06:03:30.081Z,4.27
2019-03-25T06:07:35.213Z,3.07
2019-03-25T06:11:40.328Z,6.23
2019-03-25T06:15:47.272Z,6.27
2019-03-25T06:19:52.367Z,4.53
2019-03-25T06:23:57.526Z,4.80
2019-03-25T06:28:02.638Z,4.23
2019-03-25T06:32:07.748Z,8.67
2019-03-25T06:36:12.858Z,8.87
2019-03-25T06:40:17.987Z,6.90
2019-03-25T06:44:23.053Z,5.43
2019-03-25T06:48:28.165Z,5.83
2019-03-25T06:52:33.277Z,6.00
2019-03-25T06:56:38.424Z,4.47
2019-03-25T07:00:43.545Z,7.13
2019-03-25T07:04:48.657Z,13.50
2019-03-25T07:08:53.783Z,4.87
2019-03-25T07:12:58.938Z,7.83
2019-03-25T07:17:04.036Z,5.93
2019-03-25T07:21:09.178Z,8.97
2019-03-25T07:25:14.332Z,4.07
2019-03-25T07:29:19.587Z,6.63
2019-03-25T07:33:24.711Z,6.03
2019-03-25T07:37:29.905Z,6.87
2019-03-25T07:41:35.031Z,4.23
2019-03-25T07:45:40.107Z,9.03
2019-03-25T07:49:45.242Z,10.63
2019-03-25T07:53:51.132Z,6.60
2019-03-25T07:57:56.390Z,10.80
2019-03-25T08:02:01.620Z,11.03
2019-03-25T08:06:06.716Z,4.07
2019-03-25T08:10:12.062Z,3.37
2019-03-25T08:14:17.194Z,12.40
2019-03-25T08:18:22.330Z,8.10
2019-03-25T08:22:27.514Z,5.53
2019-03-25T08:26:32.643Z,11.57
2019-03-25T08:33:46.606Z,6.90
2019-03-25T08:37:51.714Z,8.43
2019-03-25T08:41:56.849Z,8.90
2019-03-25T08:46:01.965Z,8.27
2019-03-25T08:50:07.566Z,7.40
2019-03-25T08:54:12.803Z,14.37
2019-03-25T08:58:17.943Z,11.77
2019-03-25T09:02:23.164Z,6.93
2019-03-25T09:06:28.268Z,5.87
2019-03-25T09:10:33.789Z,11.57
2019-03-25T09:14:38.942Z,7.00
2019-03-25T09:18:44.088Z,8.20
2019-03-25T09:22:49.697Z,9.70
2019-03-25T09:26:54.786Z,7.97
2019-03-25T09:31:20.748Z,5.40
2019-03-25T09:35:25.866Z,2.43
2019-03-25T09:39:30.969Z,3.23
2019-03-25T09:43:36.076Z,3.57
2019-03-25T09:47:41.232Z,3.60
2019-03-25T09:51:46.313Z,5.73
2019-03-25T09:55:51.431Z,6.70
2019-03-25T09:59:56.568Z,4.00
2019-03-25T10:04:01.670Z,2.13
2019-03-25T10:08:06.824Z,3.30
2019-03-25T10:12:12.004Z,5.00
2019-03-25T10:16:17.186Z,4.87
2019-03-25T10:20:22.317Z,3.90
2019-03-25T10:24:28.139Z,3.10
2019-03-25T10:28:33.438Z,6.63
2019-03-25T10:32:38.520Z,3.43
2019-03-25T10:36:43.666Z,1.93
2019-03-25T10:40:48.836Z,3.77
2019-03-25T10:44:53.982Z,2.95
2019-03-25T10:48:59.093Z,2.92
2019-03-25T10:53:04.233Z,2.55
2019-03-25T10:57:09.363Z,3.83
2019-03-25T11:01:14.605Z,2.65
2019-03-25T11:05:19.759Z,3.60
2019-03-25T11:09:24.876Z,4.90
2019-03-25T11:13:30.071Z,4.78
2019-03-25T11:17:35.296Z,3.27
2019-03-25T11:21:40.452Z,3.92
2019-03-25T11:25:45.629Z,3.02
2019-03-25T11:29:50.739Z,2.25
2019-03-25T11:33:55.860Z,3.83
2019-03-25T11:38:01.000Z,5.40
2019-03-25T11:42:06.154Z,6.85
2019-03-25T11:46:11.319Z,4.30
2019-03-25T11:50:16.526Z,3.70
2019-03-25T11:54:21.675Z,5.30
2019-03-25T11:58:26.828Z,4.67
2019-03-25T12:02:31.949Z,5.70
2019-03-25T12:06:37.602Z,5.37
2019-03-25T12:10:42.820Z,4.47
2019-03-25T12:14:48.044Z,6.25
2019-03-25T12:18:53.158Z,7.28
2019-03-25T12:22:58.345Z,4.37
2019-03-25T12:27:03.440Z,7.10
2019-03-25T12:31:08.574Z,5.13
2019-03-25T12:35:13.931Z,4.83
2019-03-25T12:39:19.052Z,2.30
2019-03-25T12:43:24.360Z,4.78
2019-03-25T12:47:29.627Z,3.37
2019-03-25T12:51:34.769Z,4.53
2019-03-25T12:55:39.887Z,3.98
2019-03-25T12:59:45.009Z,7.22
2019-03-25T13:03:50.154Z,7.35
2019-03-25T13:07:55.321Z,7.70
2019-03-25T13:12:00.467Z,7.17
2019-03-25T13:16:05.632Z,5.08
2019-03-25T13:20:10.929Z,8.55
2019-03-25T13:24:16.121Z,6.72
2019-03-25T13:28:21.222Z,3.17
2019-03-25T13:32:26.357Z,6.65
2019-03-25T13:36:31.529Z,4.47
2019-03-25T13:40:36.669Z,7.75
2019-03-25T13:44:41.839Z,4.17
2019-03-25T13:48:46.948Z,5.95
2019-03-25T13:52:52.093Z,3.50
2019-03-25T13:57:08.101Z,4.10
2019-03-25T14:01:13.237Z,4.05
2019-03-25T14:05:18.437Z,5.65
2019-03-25T14:09:23.556Z,8.77
2019-03-25T14:13:28.748Z,2.72
2019-03-25T14:17:34.007Z,2.98
2019-03-25T14:21:39.185Z,3.75
2019-03-25T14:25:44.354Z,3.55
2019-03-25T14:29:49.534Z,4.40
2019-03-25T14:33:54.645Z,2.50
2019-03-25T14:37:59.795Z,2.25
2019-03-25T14:42:04.974Z,3.45
2019-03-25T14:46:10.149Z,2.80
2019-03-25T14:50:15.420Z,1.92
2019-03-25T14:54:22.010Z,2.10
2019-03-25T14:58:30.617Z,2.12
2019-03-25T15:02:35.867Z,1.30
2019-03-25T15:06:44.089Z,2.67
2019-03-25T15:10:53.612Z,2.47
2019-03-25T15:14:56.216Z,3.10
2019-03-25T15:19:01.454Z,2.50
2019-03-25T15:23:06.707Z,3.35
2019-03-25T15:27:11.970Z,3.03
2019-03-25T15:31:17.162Z,4.22
2019-03-25T15:35:22.648Z,2.58
2019-03-25T15:39:27.938Z,4.00
2019-03-25T15:43:33.115Z,6.00
2019-03-25T15:47:38.519Z,4.87
2019-03-25T15:51:43.969Z,4.03
2019-03-25T15:55:49.205Z,4.00
2019-03-25T15:59:54.318Z,3.87
2019-03-25T16:03:59.493Z,4.25
2019-03-25T16:08:04.657Z,5.70
2019-03-25T16:12:10.185Z,7.00
2019-03-25T16:16:15.267Z,6.37
2019-03-25T16:20:20.453Z,5.60
2019-03-25T16:24:25.689Z,6.87
2019-03-25T16:28:30.913Z,5.05
2019-03-25T16:32:36.096Z,5.80
2019-03-25T16:36:41.311Z,7.85
2019-03-25T16:40:46.505Z,7.65
2019-03-25T16:44:51.723Z,7.40
2019-03-25T16:48:56.918Z,7.45
2019-03-25T16:53:02.108Z,8.23
2019-03-25T16:57:07.261Z,9.60
2019-03-25T17:01:12.458Z,10.85
2019-03-25T17:05:17.660Z,10.82
2019-03-25T17:09:22.842Z,10.03
2019-03-25T17:13:28.071Z,11.97
2019-03-25T17:17:33.406Z,11.65
2019-03-25T17:21:38.591Z,9.35
2019-03-25T17:25:52.707Z,11.48
2019-03-25T17:29:50.691Z,9.88
2019-03-25T17:33:55.905Z,10.20
2019-03-25T17:38:01.077Z,7.70
2019-03-25T17:42:09.766Z,10.13
2019-03-25T17:46:14.934Z,8.60
2019-03-25T17:50:23.686Z,9.10
2019-03-25T17:54:28.857Z,12.45
2019-03-25T17:58:40.691Z,9.83
2019-03-25T18:02:46.220Z,11.35
2019-03-25T18:06:51.437Z,11.50
2019-03-25T18:10:56.634Z,10.72
2019-03-25T18:15:01.845Z,9.55
2019-03-25T18:19:07.171Z,9.57
2019-03-25T18:23:12.370Z,8.45
2019-03-25T18:27:17.972Z,13.28
2019-03-25T18:31:23.192Z,11.73
2019-03-25T18:35:28.358Z,8.20
2019-03-25T18:39:33.503Z,9.05
2019-03-25T18:43:38.722Z,8.40
2019-03-25T18:47:43.922Z,10.50
2019-03-25T18:51:49.089Z,10.32
2019-03-25T18:55:54.223Z,10.60
2019-03-25T18:59:59.356Z,9.45
2019-03-25T19:04:04.552Z,7.10
2019-03-25T19:08:10.509Z,9.18
2019-03-25T19:12:15.842Z,10.90
2019-03-25T19:16:21.140Z,11.33
2019-03-25T19:20:26.494Z,10.53
2019-03-25T19:24:31.903Z,8.53
2019-03-25T19:28:37.465Z,10.53
2019-03-25T19:32:42.732Z,9.30
2019-03-25T19:36:48.051Z,5.53
2019-03-25T19:40:53.403Z,8.70
2019-03-25T19:44:58.620Z,8.75
2019-03-25T19:49:03.697Z,9.75
2019-03-25T19:53:18.560Z,9.90
2019-03-25T19:57:15.638Z,9.90
2019-03-25T20:01:20.782Z,14.03
2019-03-25T20:05:25.882Z,13.40
2019-03-25T20:09:30.974Z,10.50
2019-03-25T20:13:36.156Z,13.78
2019-03-25T20:17:41.298Z,11.20
2019-03-25T20:21:46.484Z,12.20
2019-03-25T20:25:51.671Z,10.23
2019-03-25T20:29:56.815Z,9.18
2019-03-25T20:34:10.981Z,15.28
2019-03-25T20:38:08.665Z,9.15
2019-03-25T20:42:13.864Z,10.05
2019-03-25T20:46:18.960Z,10.93
2019-03-25T20:50:24.156Z,13.13
2019-03-25T20:54:29.216Z,11.25
2019-03-25T20:58:34.339Z,13.60
2019-03-25T21:02:44.893Z,14.20
2019-03-25T21:06:46.213Z,16.05
2019-03-25T21:10:51.528Z,14.03
2019-03-25T21:14:56.643Z,14.23
2019-03-25T21:19:01.817Z,15.45
2019-03-25T21:23:06.932Z,16.13
2019-03-25T21:27:12.080Z,15.43
2019-03-25T21:31:17.272Z,13.43
2019-03-25T21:35:22.379Z,12.95
2019-03-25T21:39:27.587Z,15.87
2019-03-25T21:43:32.709Z,16.30
2019-03-25T21:47:37.840Z,17.37
2019-03-25T21:51:42.932Z,15.83
2019-03-25T21:55:48.054Z,21.53
2019-03-25T21:59:53.285Z,22.32
2019-03-25T22:03:58.349Z,21.85
2019-03-25T22:08:03.463Z,26.40
2019-03-25T22:12:08.600Z,25.40
2019-03-25T22:16:12.767Z,26.57
2019-03-25T22:20:17.897Z,22.48
2019-03-25T22:24:23.060Z,27.13
2019-03-25T22:28:28.188Z,21.10
2019-03-25T22:32:33.316Z,25.95
2019-03-25T22:36:38.409Z,22.65
2019-03-25T22:40:43.521Z,26.52
2019-03-25T22:44:48.653Z,27.00
2019-03-25T22:48:53.792Z,23.65
2019-03-25T22:52:59.232Z,22.58
2019-03-25T22:57:04.329Z,24.25
2019-03-25T23:01:09.472Z,21.97
2019-03-25T23:05:14.591Z,19.57
2019-03-25T23:09:19.716Z,23.42
2019-03-25T23:13:24.854Z,21.73
2019-03-25T23:17:29.961Z,26.23
2019-03-25T23:21:35.100Z,20.68
2019-03-25T23:25:40.250Z,21.65
2019-03-25T23:29:45.374Z,20.90
2019-03-25T23:33:52.478Z,21.87
2019-03-25T23:37:57.236Z,20.30
2019-03-25T23:42:02.363Z,23.77
2019-03-25T23:46:06.641Z,18.85
2019-03-25T23:50:10.929Z,19.20
2019-03-25T23:54:16.450Z,19.82
2019-03-25T23:58:21.541Z,19.82
